sensor_id;sensor_type;location;lat;lon;timestamp;temperature;humidity
22098;DHT22;11215;51.938;8.464;2022-07-29T00:02:01;22.80;41.50
22098;DHT22;11215;51.938;8.464;2022-07-29T00:04:27;22.80;42.20
22098;DHT22;11215;51.938;8.464;2022-07-29T00:06:52;22.80;41.60
22098;DHT22;11215;51.938;8.464;2022-07-29T00:09:18;22.80;41.60
22098;DHT22;11215;51.938;8.464;2022-07-29T00:11:44;22.80;41.50
22098;DHT22;11215;51.938;8.464;2022-07-29T00:14:09;22.80;41.60
22098;DHT22;11215;51.938;8.464;2022-07-29T00:16:35;22.80;41.80
22098;DHT22;11215;51.938;8.464;2022-07-29T00:19:01;22.70;41.70
22098;DHT22;11215;51.938;8.464;2022-07-29T00:21:27;22.80;41.70
22098;DHT22;11215;51.938;8.464;2022-07-29T00:23:52;22.80;41.70
22098;DHT22;11215;51.938;8.464;2022-07-29T00:26:18;22.70;41.70
22098;DHT22;11215;51.938;8.464;2022-07-29T00:28:43;22.70;41.70
22098;DHT22;11215;51.938;8.464;2022-07-29T00:31:09;22.70;41.80
22098;DHT22;11215;51.938;8.464;2022-07-29T00:33:35;22.70;41.80
22098;DHT22;11215;51.938;8.464;2022-07-29T00:36:00;22.70;42.00
22098;DHT22;11215;51.938;8.464;2022-07-29T00:38:26;22.70;42.10
22098;DHT22;11215;51.938;8.464;2022-07-29T00:40:51;22.70;42.50
22098;DHT22;11215;51.938;8.464;2022-07-29T00:43:17;22.70;41.90
22098;DHT22;11215;51.938;8.464;2022-07-29T00:45:43;22.70;42.00
22098;DHT22;11215;51.938;8.464;2022-07-29T00:48:09;22.70;42.00
22098;DHT22;11215;51.938;8.464;2022-07-29T00:50:36;22.60;42.10
22098;DHT22;11215;51.938;8.464;2022-07-29T00:53:03;22.70;42.30
22098;DHT22;11215;51.938;8.464;2022-07-29T00:55:30;22.60;42.40
22098;DHT22;11215;51.938;8.464;2022-07-29T00:57:57;22.60;42.40
22098;DHT22;11215;51.938;8.464;2022-07-29T01:00:25;22.60;42.40
22098;DHT22;11215;51.938;8.464;2022-07-29T01:02:52;22.60;42.40
22098;DHT22;11215;51.938;8.464;2022-07-29T01:05:20;22.60;42.40
22098;DHT22;11215;51.938;8.464;2022-07-29T01:07:47;22.60;42.40
22098;DHT22;11215;51.938;8.464;2022-07-29T01:10:15;22.60;42.50
22098;DHT22;11215;51.938;8.464;2022-07-29T01:12:43;22.60;42.70
22098;DHT22;11215;51.938;8.464;2022-07-29T01:15:09;22.60;42.70
22098;DHT22;11215;51.938;8.464;2022-07-29T01:18:02;22.60;42.70
22098;DHT22;11215;51.938;8.464;2022-07-29T01:31:47;22.50;43.20
22098;DHT22;11215;51.938;8.464;2022-07-29T01:34:21;22.40;43.30
22098;DHT22;11215;51.938;8.464;2022-07-29T01:37:05;22.40;43.30
22098;DHT22;11215;51.938;8.464;2022-07-29T01:39:36;22.40;43.30
22098;DHT22;11215;51.938;8.464;2022-07-29T01:42:06;22.40;43.60
22098;DHT22;11215;51.938;8.464;2022-07-29T01:44:39;22.40;43.10
22098;DHT22;11215;51.938;8.464;2022-07-29T01:47:20;22.40;43.20
22098;DHT22;11215;51.938;8.464;2022-07-29T01:49:48;22.30;43.50
22098;DHT22;11215;51.938;8.464;2022-07-29T01:52:21;22.30;43.20
22098;DHT22;11215;51.938;8.464;2022-07-29T01:54:53;22.30;43.90
22098;DHT22;11215;51.938;8.464;2022-07-29T01:57:24;22.30;43.40
22098;DHT22;11215;51.938;8.464;2022-07-29T01:59:51;22.30;43.50
22098;DHT22;11215;51.938;8.464;2022-07-29T02:02:18;22.20;43.60
22098;DHT22;11215;51.938;8.464;2022-07-29T02:04:46;22.20;43.70
22098;DHT22;11215;51.938;8.464;2022-07-29T02:07:18;22.20;43.70
22098;DHT22;11215;51.938;8.464;2022-07-29T02:09:46;22.20;43.90
22098;DHT22;11215;51.938;8.464;2022-07-29T02:12:13;22.30;44.00
22098;DHT22;11215;51.938;8.464;2022-07-29T02:14:46;22.20;43.90
22098;DHT22;11215;51.938;8.464;2022-07-29T02:17:13;22.20;44.00
22098;DHT22;11215;51.938;8.464;2022-07-29T02:19:43;22.20;44.00
22098;DHT22;11215;51.938;8.464;2022-07-29T02:22:10;22.20;44.00
22098;DHT22;11215;51.938;8.464;2022-07-29T02:24:37;22.20;44.10
22098;DHT22;11215;51.938;8.464;2022-07-29T02:27:07;22.20;44.10
22098;DHT22;11215;51.938;8.464;2022-07-29T02:29:34;22.20;44.20
22098;DHT22;11215;51.938;8.464;2022-07-29T02:32:01;22.20;44.20
22098;DHT22;11215;51.938;8.464;2022-07-29T02:34:28;22.20;44.30
22098;DHT22;11215;51.938;8.464;2022-07-29T02:36:55;22.10;44.20
22098;DHT22;11215;51.938;8.464;2022-07-29T02:39:21;22.20;44.30
22098;DHT22;11215;51.938;8.464;2022-07-29T02:41:51;22.10;44.10
22098;DHT22;11215;51.938;8.464;2022-07-29T02:44:19;22.10;44.30
22098;DHT22;11215;51.938;8.464;2022-07-29T02:49:40;22.00;44.90
22098;DHT22;11215;51.938;8.464;2022-07-29T02:52:18;22.00;44.60
22098;DHT22;11215;51.938;8.464;2022-07-29T02:54:58;22.00;44.70
22098;DHT22;11215;51.938;8.464;2022-07-29T03:00:05;21.90;44.90
22098;DHT22;11215;51.938;8.464;2022-07-29T03:02:37;21.90;44.90
22098;DHT22;11215;51.938;8.464;2022-07-29T03:05:06;21.80;45.00
22098;DHT22;11215;51.938;8.464;2022-07-29T03:07:34;21.80;45.10
22098;DHT22;11215;51.938;8.464;2022-07-29T03:10:01;21.80;45.00
22098;DHT22;11215;51.938;8.464;2022-07-29T03:12:27;21.80;45.10
22098;DHT22;11215;51.938;8.464;2022-07-29T03:14:54;21.80;45.30
22098;DHT22;11215;51.938;8.464;2022-07-29T03:17:21;21.70;45.30
22098;DHT22;11215;51.938;8.464;2022-07-29T03:19:47;21.80;45.70
22098;DHT22;11215;51.938;8.464;2022-07-29T03:22:13;21.70;45.80
22098;DHT22;11215;51.938;8.464;2022-07-29T03:24:39;21.70;45.70
22098;DHT22;11215;51.938;8.464;2022-07-29T03:27:05;21.70;45.80
22098;DHT22;11215;51.938;8.464;2022-07-29T03:29:31;21.70;45.80
22098;DHT22;11215;51.938;8.464;2022-07-29T03:31:57;21.70;45.90
22098;DHT22;11215;51.938;8.464;2022-07-29T03:34:23;21.70;45.80
22098;DHT22;11215;51.938;8.464;2022-07-29T03:36:49;21.70;45.80
22098;DHT22;11215;51.938;8.464;2022-07-29T03:39:21;21.70;45.90
22098;DHT22;11215;51.938;8.464;2022-07-29T03:41:51;21.70;46.00
22098;DHT22;11215;51.938;8.464;2022-07-29T03:44:17;21.60;45.70
22098;DHT22;11215;51.938;8.464;2022-07-29T03:46:45;21.60;45.60
22098;DHT22;11215;51.938;8.464;2022-07-29T03:49:11;21.60;45.90
22098;DHT22;11215;51.938;8.464;2022-07-29T03:51:43;21.50;45.90
22098;DHT22;11215;51.938;8.464;2022-07-29T03:54:08;21.50;46.10
22098;DHT22;11215;51.938;8.464;2022-07-29T03:56:37;21.50;46.10
22098;DHT22;11215;51.938;8.464;2022-07-29T03:59:05;21.50;46.30
22098;DHT22;11215;51.938;8.464;2022-07-29T04:01:33;21.40;46.30
22098;DHT22;11215;51.938;8.464;2022-07-29T04:04:01;21.40;46.50
22098;DHT22;11215;51.938;8.464;2022-07-29T04:06:27;21.40;46.60
22098;DHT22;11215;51.938;8.464;2022-07-29T04:08:52;21.40;46.40
22098;DHT22;11215;51.938;8.464;2022-07-29T04:11:18;21.30;46.40
22098;DHT22;11215;51.938;8.464;2022-07-29T04:13:44;21.30;46.40
22098;DHT22;11215;51.938;8.464;2022-07-29T04:16:09;21.30;46.60
22098;DHT22;11215;51.938;8.464;2022-07-29T04:18:35;21.30;46.80
22098;DHT22;11215;51.938;8.464;2022-07-29T04:21:00;21.20;46.90
22098;DHT22;11215;51.938;8.464;2022-07-29T04:23:27;21.30;47.10
22098;DHT22;11215;51.938;8.464;2022-07-29T04:25:54;21.30;47.30
22098;DHT22;11215;51.938;8.464;2022-07-29T04:28:20;21.20;47.30
22098;DHT22;11215;51.938;8.464;2022-07-29T04:30:45;21.20;47.40
22098;DHT22;11215;51.938;8.464;2022-07-29T04:33:11;21.20;47.50
22098;DHT22;11215;51.938;8.464;2022-07-29T04:35:37;21.20;47.50
22098;DHT22;11215;51.938;8.464;2022-07-29T04:38:04;21.20;47.60
22098;DHT22;11215;51.938;8.464;2022-07-29T04:40:30;21.20;47.50
22098;DHT22;11215;51.938;8.464;2022-07-29T04:42:58;21.20;47.50
22098;DHT22;11215;51.938;8.464;2022-07-29T04:45:24;21.20;47.70
22098;DHT22;11215;51.938;8.464;2022-07-29T04:47:50;21.10;47.70
22098;DHT22;11215;51.938;8.464;2022-07-29T04:50:15;21.10;47.90
22098;DHT22;11215;51.938;8.464;2022-07-29T04:52:41;21.10;47.90
22098;DHT22;11215;51.938;8.464;2022-07-29T04:55:07;21.20;48.10
22098;DHT22;11215;51.938;8.464;2022-07-29T04:57:33;21.10;48.10
22098;DHT22;11215;51.938;8.464;2022-07-29T04:59:59;21.20;47.70
22098;DHT22;11215;51.938;8.464;2022-07-29T05:02:25;21.20;47.60
22098;DHT22;11215;51.938;8.464;2022-07-29T05:04:50;21.20;47.70
22098;DHT22;11215;51.938;8.464;2022-07-29T05:07:16;21.20;47.90
22098;DHT22;11215;51.938;8.464;2022-07-29T05:09:42;21.20;47.60
22098;DHT22;11215;51.938;8.464;2022-07-29T05:12:08;21.30;47.70
22098;DHT22;11215;51.938;8.464;2022-07-29T05:14:33;21.20;47.70
22098;DHT22;11215;51.938;8.464;2022-07-29T05:16:59;21.30;47.70
22098;DHT22;11215;51.938;8.464;2022-07-29T05:19:25;21.30;47.70
22098;DHT22;11215;51.938;8.464;2022-07-29T05:21:50;21.40;47.70
22098;DHT22;11215;51.938;8.464;2022-07-29T05:24:16;21.40;47.70
22098;DHT22;11215;51.938;8.464;2022-07-29T05:26:42;21.40;47.60
22098;DHT22;11215;51.938;8.464;2022-07-29T05:29:08;21.50;47.80
22098;DHT22;11215;51.938;8.464;2022-07-29T05:31:34;21.50;47.80
22098;DHT22;11215;51.938;8.464;2022-07-29T05:34:00;21.50;47.90
22098;DHT22;11215;51.938;8.464;2022-07-29T05:36:25;21.60;47.90
22098;DHT22;11215;51.938;8.464;2022-07-29T05:38:51;21.60;47.90
22098;DHT22;11215;51.938;8.464;2022-07-29T05:41:18;21.60;47.70
22098;DHT22;11215;51.938;8.464;2022-07-29T05:43:43;21.70;47.80
22098;DHT22;11215;51.938;8.464;2022-07-29T05:46:09;21.70;47.70
22098;DHT22;11215;51.938;8.464;2022-07-29T05:48:35;21.80;47.60
22098;DHT22;11215;51.938;8.464;2022-07-29T05:51:01;21.80;47.50
22098;DHT22;11215;51.938;8.464;2022-07-29T05:53:26;21.80;47.50
22098;DHT22;11215;51.938;8.464;2022-07-29T05:55:52;21.80;47.60
22098;DHT22;11215;51.938;8.464;2022-07-29T05:58:18;21.90;47.70
22098;DHT22;11215;51.938;8.464;2022-07-29T06:00:44;21.90;47.50
22098;DHT22;11215;51.938;8.464;2022-07-29T06:03:09;21.90;47.50
22098;DHT22;11215;51.938;8.464;2022-07-29T06:05:35;21.90;47.60
22098;DHT22;11215;51.938;8.464;2022-07-29T06:08:01;22.00;47.60
22098;DHT22;11215;51.938;8.464;2022-07-29T06:10:27;22.00;47.60
22098;DHT22;11215;51.938;8.464;2022-07-29T06:12:52;22.00;47.70
22098;DHT22;11215;51.938;8.464;2022-07-29T06:15:18;22.00;47.30
22098;DHT22;11215;51.938;8.464;2022-07-29T06:17:44;22.00;47.30
22098;DHT22;11215;51.938;8.464;2022-07-29T06:20:10;22.10;47.10
22098;DHT22;11215;51.938;8.464;2022-07-29T06:22:35;22.10;46.90
22098;DHT22;11215;51.938;8.464;2022-07-29T06:25:02;22.10;46.80
22098;DHT22;11215;51.938;8.464;2022-07-29T06:27:27;22.10;46.80
22098;DHT22;11215;51.938;8.464;2022-07-29T06:29:53;22.10;46.80
22098;DHT22;11215;51.938;8.464;2022-07-29T06:32:19;22.10;46.90
22098;DHT22;11215;51.938;8.464;2022-07-29T06:34:45;22.20;47.10
22098;DHT22;11215;51.938;8.464;2022-07-29T06:37:10;22.20;47.20
22098;DHT22;11215;51.938;8.464;2022-07-29T06:39:36;22.20;47.00
22098;DHT22;11215;51.938;8.464;2022-07-29T06:42:03;22.30;47.00
22098;DHT22;11215;51.938;8.464;2022-07-29T06:44:29;22.30;46.90
22098;DHT22;11215;51.938;8.464;2022-07-29T06:46:56;22.30;46.90
22098;DHT22;11215;51.938;8.464;2022-07-29T06:49:22;22.40;47.10
22098;DHT22;11215;51.938;8.464;2022-07-29T06:51:48;22.40;47.30
22098;DHT22;11215;51.938;8.464;2022-07-29T06:54:14;22.50;47.10
22098;DHT22;11215;51.938;8.464;2022-07-29T06:56:40;22.50;47.20
22098;DHT22;11215;51.938;8.464;2022-07-29T06:59:11;22.50;47.00
22098;DHT22;11215;51.938;8.464;2022-07-29T07:01:38;22.50;46.90
22098;DHT22;11215;51.938;8.464;2022-07-29T07:04:04;22.60;46.90
22098;DHT22;11215;51.938;8.464;2022-07-29T07:06:30;22.60;46.80
22098;DHT22;11215;51.938;8.464;2022-07-29T07:08:55;22.60;46.80
22098;DHT22;11215;51.938;8.464;2022-07-29T07:11:21;22.70;46.90
22098;DHT22;11215;51.938;8.464;2022-07-29T07:13:47;22.70;46.90
22098;DHT22;11215;51.938;8.464;2022-07-29T07:16:12;22.70;46.90
22098;DHT22;11215;51.938;8.464;2022-07-29T07:18:38;22.80;46.90
22098;DHT22;11215;51.938;8.464;2022-07-29T07:21:04;22.80;46.80
22098;DHT22;11215;51.938;8.464;2022-07-29T07:23:31;22.80;46.70
22098;DHT22;11215;51.938;8.464;2022-07-29T07:25:56;22.90;46.70
22098;DHT22;11215;51.938;8.464;2022-07-29T07:28:22;22.90;46.70
22098;DHT22;11215;51.938;8.464;2022-07-29T07:30:48;22.90;46.80
22098;DHT22;11215;51.938;8.464;2022-07-29T07:33:14;23.00;47.10
22098;DHT22;11215;51.938;8.464;2022-07-29T07:35:41;23.00;46.80
22098;DHT22;11215;51.938;8.464;2022-07-29T07:38:06;23.00;46.50
22098;DHT22;11215;51.938;8.464;2022-07-29T07:40:32;23.00;46.50
22098;DHT22;11215;51.938;8.464;2022-07-29T07:42:58;23.10;46.60
22098;DHT22;11215;51.938;8.464;2022-07-29T07:45:23;23.10;46.60
22098;DHT22;11215;51.938;8.464;2022-07-29T07:47:49;23.20;46.70
22098;DHT22;11215;51.938;8.464;2022-07-29T07:50:15;23.20;46.50
22098;DHT22;11215;51.938;8.464;2022-07-29T07:52:54;23.20;46.40
22098;DHT22;11215;51.938;8.464;2022-07-29T07:55:23;23.30;46.30
22098;DHT22;11215;51.938;8.464;2022-07-29T07:57:49;23.30;46.40
22098;DHT22;11215;51.938;8.464;2022-07-29T08:00:16;23.40;46.70
22098;DHT22;11215;51.938;8.464;2022-07-29T08:02:42;23.40;46.70
22098;DHT22;11215;51.938;8.464;2022-07-29T08:05:09;23.50;46.70
22098;DHT22;11215;51.938;8.464;2022-07-29T08:07:35;23.50;46.70
22098;DHT22;11215;51.938;8.464;2022-07-29T08:10:01;23.50;46.60
22098;DHT22;11215;51.938;8.464;2022-07-29T08:12:26;23.60;46.50
22098;DHT22;11215;51.938;8.464;2022-07-29T08:14:52;23.60;46.30
22098;DHT22;11215;51.938;8.464;2022-07-29T08:17:17;23.70;46.10
22098;DHT22;11215;51.938;8.464;2022-07-29T08:19:43;23.70;45.90
22098;DHT22;11215;51.938;8.464;2022-07-29T08:22:09;23.70;45.70
22098;DHT22;11215;51.938;8.464;2022-07-29T08:24:35;23.80;45.60
22098;DHT22;11215;51.938;8.464;2022-07-29T08:27:12;23.80;45.60
22098;DHT22;11215;51.938;8.464;2022-07-29T08:29:38;23.90;45.80
22098;DHT22;11215;51.938;8.464;2022-07-29T08:32:04;23.90;45.70
22098;DHT22;11215;51.938;8.464;2022-07-29T08:34:30;24.00;45.70
22098;DHT22;11215;51.938;8.464;2022-07-29T08:36:56;24.10;45.50
22098;DHT22;11215;51.938;8.464;2022-07-29T08:39:22;24.10;45.50
22098;DHT22;11215;51.938;8.464;2022-07-29T08:41:48;24.20;45.10
22098;DHT22;11215;51.938;8.464;2022-07-29T08:44:16;24.20;45.20
22098;DHT22;11215;51.938;8.464;2022-07-29T08:46:42;24.30;45.10
22098;DHT22;11215;51.938;8.464;2022-07-29T08:49:08;24.30;45.00
22098;DHT22;11215;51.938;8.464;2022-07-29T08:51:34;24.40;45.00
22098;DHT22;11215;51.938;8.464;2022-07-29T08:54:02;24.40;45.10
22098;DHT22;11215;51.938;8.464;2022-07-29T08:56:28;24.40;44.70
22098;DHT22;11215;51.938;8.464;2022-07-29T08:58:54;24.50;44.50
22098;DHT22;11215;51.938;8.464;2022-07-29T09:01:24;24.50;44.40
22098;DHT22;11215;51.938;8.464;2022-07-29T09:03:50;24.60;44.50
22098;DHT22;11215;51.938;8.464;2022-07-29T09:06:21;24.60;44.50
22098;DHT22;11215;51.938;8.464;2022-07-29T09:08:47;24.60;44.60
22098;DHT22;11215;51.938;8.464;2022-07-29T09:11:14;24.60;44.40
22098;DHT22;11215;51.938;8.464;2022-07-29T09:13:40;24.70;44.20
22098;DHT22;11215;51.938;8.464;2022-07-29T09:16:06;24.70;44.30
22098;DHT22;11215;51.938;8.464;2022-07-29T09:21:02;24.80;44.20
22098;DHT22;11215;51.938;8.464;2022-07-29T09:26:31;24.90;43.40
22098;DHT22;11215;51.938;8.464;2022-07-29T09:28:58;25.00;43.90
22098;DHT22;11215;51.938;8.464;2022-07-29T09:31:36;25.00;44.00
22098;DHT22;11215;51.938;8.464;2022-07-29T09:34:02;25.00;43.80
22098;DHT22;11215;51.938;8.464;2022-07-29T09:36:28;25.00;43.70
22098;DHT22;11215;51.938;8.464;2022-07-29T09:39:01;25.10;43.60
22098;DHT22;11215;51.938;8.464;2022-07-29T09:41:28;25.10;43.50
22098;DHT22;11215;51.938;8.464;2022-07-29T09:43:59;25.20;44.10
22098;DHT22;11215;51.938;8.464;2022-07-29T09:46:25;25.20;44.30
22098;DHT22;11215;51.938;8.464;2022-07-29T09:49:13;25.30;44.20
22098;DHT22;11215;51.938;8.464;2022-07-29T09:51:40;25.30;44.70
22098;DHT22;11215;51.938;8.464;2022-07-29T09:54:23;25.50;44.50
22098;DHT22;11215;51.938;8.464;2022-07-29T09:56:49;25.60;44.20
22098;DHT22;11215;51.938;8.464;2022-07-29T09:59:15;25.60;44.10
22098;DHT22;11215;51.938;8.464;2022-07-29T10:01:41;25.70;44.10
22098;DHT22;11215;51.938;8.464;2022-07-29T10:04:07;25.80;44.00
22098;DHT22;11215;51.938;8.464;2022-07-29T10:06:33;25.90;43.80
22098;DHT22;11215;51.938;8.464;2022-07-29T10:09:11;26.00;43.50
22098;DHT22;11215;51.938;8.464;2022-07-29T10:11:37;26.00;43.30
22098;DHT22;11215;51.938;8.464;2022-07-29T10:14:03;26.10;43.60
22098;DHT22;11215;51.938;8.464;2022-07-29T10:16:29;26.20;43.80
22098;DHT22;11215;51.938;8.464;2022-07-29T10:18:59;26.20;43.70
22098;DHT22;11215;51.938;8.464;2022-07-29T10:21:28;26.30;43.70
22098;DHT22;11215;51.938;8.464;2022-07-29T10:23:55;26.40;43.00
22098;DHT22;11215;51.938;8.464;2022-07-29T10:26:23;26.50;43.50
22098;DHT22;11215;51.938;8.464;2022-07-29T10:28:49;26.60;43.00
22098;DHT22;11215;51.938;8.464;2022-07-29T10:31:22;26.60;42.90
22098;DHT22;11215;51.938;8.464;2022-07-29T10:41:56;27.00;41.60
22098;DHT22;11215;51.938;8.464;2022-07-29T10:44:25;27.00;42.10
22098;DHT22;11215;51.938;8.464;2022-07-29T10:46:52;27.10;42.10
22098;DHT22;11215;51.938;8.464;2022-07-29T10:49:25;27.20;42.00
22098;DHT22;11215;51.938;8.464;2022-07-29T10:59:49;27.50;40.60
22098;DHT22;11215;51.938;8.464;2022-07-29T11:05:07;27.60;40.80
22098;DHT22;11215;51.938;8.464;2022-07-29T11:07:38;27.60;40.70
22098;DHT22;11215;51.938;8.464;2022-07-29T11:15:04;27.70;40.60
22098;DHT22;11215;51.938;8.464;2022-07-29T11:20:36;27.80;39.60
22098;DHT22;11215;51.938;8.464;2022-07-29T11:31:16;28.10;39.60
22098;DHT22;11215;51.938;8.464;2022-07-29T11:33:44;28.20;39.30
22098;DHT22;11215;51.938;8.464;2022-07-29T11:36:12;28.20;39.30
22098;DHT22;11215;51.938;8.464;2022-07-29T11:38:38;28.30;39.50
22098;DHT22;11215;51.938;8.464;2022-07-29T11:41:23;28.30;38.80
22098;DHT22;11215;51.938;8.464;2022-07-29T11:43:54;28.30;38.40
22098;DHT22;11215;51.938;8.464;2022-07-29T11:46:46;28.40;39.10
22098;DHT22;11215;51.938;8.464;2022-07-29T11:49:26;28.40;38.30
22098;DHT22;11215;51.938;8.464;2022-07-29T11:51:57;28.50;38.90
22098;DHT22;11215;51.938;8.464;2022-07-29T11:54:33;28.50;39.00
22098;DHT22;11215;51.938;8.464;2022-07-29T11:56:59;28.50;38.60
22098;DHT22;11215;51.938;8.464;2022-07-29T11:59:25;28.60;38.90
22098;DHT22;11215;51.938;8.464;2022-07-29T12:01:56;28.60;38.70
22098;DHT22;11215;51.938;8.464;2022-07-29T12:04:22;28.60;38.70
22098;DHT22;11215;51.938;8.464;2022-07-29T12:06:52;28.70;38.50
22098;DHT22;11215;51.938;8.464;2022-07-29T12:09:18;28.80;38.70
22098;DHT22;11215;51.938;8.464;2022-07-29T12:11:45;28.90;38.40
22098;DHT22;11215;51.938;8.464;2022-07-29T12:14:34;28.90;38.60
22098;DHT22;11215;51.938;8.464;2022-07-29T12:17:00;29.00;37.70
22098;DHT22;11215;51.938;8.464;2022-07-29T12:19:26;29.10;38.10
22098;DHT22;11215;51.938;8.464;2022-07-29T12:21:54;29.20;37.80
22098;DHT22;11215;51.938;8.464;2022-07-29T12:24:21;29.20;37.70
22098;DHT22;11215;51.938;8.464;2022-07-29T12:29:19;29.40;37.50
22098;DHT22;11215;51.938;8.464;2022-07-29T12:31:46;29.40;37.90
22098;DHT22;11215;51.938;8.464;2022-07-29T12:34:13;29.50;37.70
22098;DHT22;11215;51.938;8.464;2022-07-29T12:36:42;29.50;37.30
22098;DHT22;11215;51.938;8.464;2022-07-29T12:39:08;29.60;37.00
22098;DHT22;11215;51.938;8.464;2022-07-29T12:41:35;29.70;37.00
22098;DHT22;11215;51.938;8.464;2022-07-29T12:44:01;29.70;36.90
22098;DHT22;11215;51.938;8.464;2022-07-29T12:46:26;29.80;36.90
22098;DHT22;11215;51.938;8.464;2022-07-29T12:48:54;29.80;36.50
22098;DHT22;11215;51.938;8.464;2022-07-29T12:51:40;29.90;37.10
22098;DHT22;11215;51.938;8.464;2022-07-29T12:54:13;29.90;36.30
22098;DHT22;11215;51.938;8.464;2022-07-29T12:56:41;29.90;36.30
22098;DHT22;11215;51.938;8.464;2022-07-29T12:59:19;30.00;36.60
22098;DHT22;11215;51.938;8.464;2022-07-29T13:01:50;30.00;36.40
22098;DHT22;11215;51.938;8.464;2022-07-29T13:04:26;30.00;36.70
22098;DHT22;11215;51.938;8.464;2022-07-29T13:07:07;30.00;36.40
22098;DHT22;11215;51.938;8.464;2022-07-29T13:09:43;30.00;36.10
22098;DHT22;11215;51.938;8.464;2022-07-29T13:12:11;30.00;36.00
22098;DHT22;11215;51.938;8.464;2022-07-29T13:14:45;29.90;36.10
22098;DHT22;11215;51.938;8.464;2022-07-29T13:17:14;29.90;35.50
22098;DHT22;11215;51.938;8.464;2022-07-29T13:19:45;29.90;35.90
22098;DHT22;11215;51.938;8.464;2022-07-29T13:22:13;29.80;35.90
22098;DHT22;11215;51.938;8.464;2022-07-29T13:25:05;29.80;36.00
22098;DHT22;11215;51.938;8.464;2022-07-29T13:27:36;29.70;36.10
22098;DHT22;11215;51.938;8.464;2022-07-29T13:30:04;29.70;36.50
22098;DHT22;11215;51.938;8.464;2022-07-29T13:32:31;29.70;36.00
22098;DHT22;11215;51.938;8.464;2022-07-29T13:34:59;29.70;36.30
22098;DHT22;11215;51.938;8.464;2022-07-29T13:37:25;29.70;36.20
22098;DHT22;11215;51.938;8.464;2022-07-29T13:39:51;29.80;36.10
22098;DHT22;11215;51.938;8.464;2022-07-29T13:42:19;29.80;36.30
22098;DHT22;11215;51.938;8.464;2022-07-29T13:44:44;29.80;36.50
22098;DHT22;11215;51.938;8.464;2022-07-29T13:47:10;29.80;36.40
22098;DHT22;11215;51.938;8.464;2022-07-29T13:49:36;29.90;36.50
22098;DHT22;11215;51.938;8.464;2022-07-29T13:52:02;29.90;36.60
22098;DHT22;11215;51.938;8.464;2022-07-29T13:54:28;29.90;36.70
22098;DHT22;11215;51.938;8.464;2022-07-29T13:56:57;29.90;36.30
22098;DHT22;11215;51.938;8.464;2022-07-29T13:59:23;29.90;36.70
22098;DHT22;11215;51.938;8.464;2022-07-29T14:01:48;29.90;36.50
22098;DHT22;11215;51.938;8.464;2022-07-29T14:04:14;29.90;36.60
22098;DHT22;11215;51.938;8.464;2022-07-29T14:06:39;29.80;36.60
22098;DHT22;11215;51.938;8.464;2022-07-29T14:09:05;29.80;36.70
22098;DHT22;11215;51.938;8.464;2022-07-29T14:11:39;29.80;36.90
22098;DHT22;11215;51.938;8.464;2022-07-29T14:14:05;29.80;36.90
22098;DHT22;11215;51.938;8.464;2022-07-29T14:16:31;29.70;36.90
22098;DHT22;11215;51.938;8.464;2022-07-29T14:18:56;29.70;37.00
22098;DHT22;11215;51.938;8.464;2022-07-29T14:21:22;29.70;36.90
22098;DHT22;11215;51.938;8.464;2022-07-29T14:23:48;29.70;36.80
22098;DHT22;11215;51.938;8.464;2022-07-29T14:26:14;29.70;36.90
22098;DHT22;11215;51.938;8.464;2022-07-29T14:28:39;29.70;37.20
22098;DHT22;11215;51.938;8.464;2022-07-29T14:31:05;29.70;37.30
22098;DHT22;11215;51.938;8.464;2022-07-29T14:33:30;29.70;37.20
22098;DHT22;11215;51.938;8.464;2022-07-29T14:35:56;29.70;37.00
22098;DHT22;11215;51.938;8.464;2022-07-29T14:38:22;29.70;37.30
22098;DHT22;11215;51.938;8.464;2022-07-29T14:40:47;29.60;37.30
22098;DHT22;11215;51.938;8.464;2022-07-29T14:43:14;29.60;37.10
22098;DHT22;11215;51.938;8.464;2022-07-29T14:45:40;29.60;36.90
22098;DHT22;11215;51.938;8.464;2022-07-29T14:48:06;29.60;37.00
22098;DHT22;11215;51.938;8.464;2022-07-29T14:50:32;29.60;37.20
22098;DHT22;11215;51.938;8.464;2022-07-29T14:52:59;29.60;36.80
22098;DHT22;11215;51.938;8.464;2022-07-29T14:55:25;29.50;36.70
22098;DHT22;11215;51.938;8.464;2022-07-29T14:57:50;29.50;36.70
22098;DHT22;11215;51.938;8.464;2022-07-29T15:00:17;29.40;36.90
22098;DHT22;11215;51.938;8.464;2022-07-29T15:02:42;29.40;37.10
22098;DHT22;11215;51.938;8.464;2022-07-29T15:05:08;29.30;37.20
22098;DHT22;11215;51.938;8.464;2022-07-29T15:07:34;29.30;37.30
22098;DHT22;11215;51.938;8.464;2022-07-29T15:09:59;29.30;37.20
22098;DHT22;11215;51.938;8.464;2022-07-29T15:12:25;29.20;37.30
22098;DHT22;11215;51.938;8.464;2022-07-29T15:14:51;29.20;37.30
22098;DHT22;11215;51.938;8.464;2022-07-29T15:17:17;29.20;37.30
22098;DHT22;11215;51.938;8.464;2022-07-29T15:19:42;29.10;37.30
22098;DHT22;11215;51.938;8.464;2022-07-29T15:22:08;29.10;37.10
22098;DHT22;11215;51.938;8.464;2022-07-29T15:24:34;29.00;37.10
22098;DHT22;11215;51.938;8.464;2022-07-29T15:26:59;29.00;37.20
22098;DHT22;11215;51.938;8.464;2022-07-29T15:29:25;28.90;37.30
22098;DHT22;11215;51.938;8.464;2022-07-29T15:31:50;28.90;37.30
22098;DHT22;11215;51.938;8.464;2022-07-29T15:34:16;28.80;37.30
22098;DHT22;11215;51.938;8.464;2022-07-29T15:36:42;28.80;37.40
22098;DHT22;11215;51.938;8.464;2022-07-29T15:39:07;28.70;37.40
22098;DHT22;11215;51.938;8.464;2022-07-29T15:41:34;28.70;37.60
22098;DHT22;11215;51.938;8.464;2022-07-29T15:44:00;28.70;37.70
22098;DHT22;11215;51.938;8.464;2022-07-29T15:46:25;28.60;37.80
22098;DHT22;11215;51.938;8.464;2022-07-29T15:49:13;28.60;37.90
22098;DHT22;11215;51.938;8.464;2022-07-29T15:51:42;28.50;37.90
22098;DHT22;11215;51.938;8.464;2022-07-29T15:54:08;28.50;38.00
22098;DHT22;11215;51.938;8.464;2022-07-29T15:56:33;28.50;38.10
22098;DHT22;11215;51.938;8.464;2022-07-29T15:58:59;28.50;38.10
22098;DHT22;11215;51.938;8.464;2022-07-29T16:01:25;28.40;38.10
22098;DHT22;11215;51.938;8.464;2022-07-29T16:03:51;28.40;38.10
22098;DHT22;11215;51.938;8.464;2022-07-29T16:06:17;28.40;37.90
22098;DHT22;11215;51.938;8.464;2022-07-29T16:08:43;28.40;38.00
22098;DHT22;11215;51.938;8.464;2022-07-29T16:11:09;28.30;38.00
22098;DHT22;11215;51.938;8.464;2022-07-29T16:13:35;28.30;38.00
22098;DHT22;11215;51.938;8.464;2022-07-29T16:16:01;28.30;37.90
22098;DHT22;11215;51.938;8.464;2022-07-29T16:18:26;28.20;38.10
22098;DHT22;11215;51.938;8.464;2022-07-29T16:20:52;28.20;38.10
22098;DHT22;11215;51.938;8.464;2022-07-29T16:23:18;28.20;38.10
22098;DHT22;11215;51.938;8.464;2022-07-29T16:25:43;28.10;38.10
22098;DHT22;11215;51.938;8.464;2022-07-29T16:28:09;28.10;38.30
22098;DHT22;11215;51.938;8.464;2022-07-29T16:30:35;28.10;38.30
22098;DHT22;11215;51.938;8.464;2022-07-29T16:33:01;28.00;38.20